Hartwell, United Kingdom
Current Conditions -  °F | °C
As of 4:50 PM on Saturday 20 Dec 2014 (Local Time) from EGTC Reporting Station
Few Clouds Few Clouds  
Wind Chill: 39°   Ceiling: Unl
Heat Index: 45°   Visibility: 6mi
Dew Point: 39°   Wind: 10mph
Humidity: 81%   Direction: 260°W
Pressure: 30.33"   Gusts: NA
Location:  52.15°N, 0.85°W
Report Text: EGTC 201650Z 26009KT 9999 FEW035 07/04 Q1027
Loading
Personal Weather Stations






























Interactive Weather Map New forecast layout! Learn more

10-Day Weather Forecast

Advertisements
Track Severe Weather on mobile